Impacts TAF Board
For situational awareness. Not to be used for flight planning purposes.
IDs:

KPEQ - Pecos Muni, TX, US

Issued at 1720 UTC 08 Aug 2020
Updated at 2012 UTC 08 Aug 2020
Potential Impact None Slight Moderate High
Time1955Z 08/21Z 08/22Z 08/23Z 09/00Z 09/01Z 09/02Z 09/03Z 09/04Z 09/05Z 09/06Z 09/07Z 09/08Z 09/09Z>>
Type OBS PRVL PRVL PRVL PRVL PRVL PRVL PRVL PRVL PRVL PRVL PRVL PRVL PRVL
VIS 10 >6 >6 >6 >6 >6 >6 >6 >6 >6 >6 >6 >6 >6
CIG -- -- -- -- -- -- -- -- -- -- -- -- -- --
Cover CLR SCT SCT SCT SCT SCT SCT SCT SCT SCT SCT SCT SCT SCT
FltCat VFR VFR VFR VFR VFR VFR VFR VFR VFR VFR VFR VFR VFR VFR
WX -- -- -- -- -- -- -- -- -- -- -- -- -- --
WDir VRB 170 170 170 170 170 170 170 170 170 170 170 170 170
WSpd 0 11 11 11 11 11 11 11 11 11 11 11 11 11
WGst -- -- -- -- -- -- -- -- -- -- -- -- -- --
Raw TAF
KPEQ 081720Z 0818/0918 17011KT P6SM SCT250

Raw METAR
KPEQ 081955Z AUTO 00000KT 10SM CLR 37/11 A3001 RMK AO2 T03670109
KPEQ 081935Z AUTO 13003KT 10SM CLR 37/12 A3002 RMK AO2 T03700117
KPEQ 081915Z AUTO 07005KT 10SM CLR 37/12 A3003 RMK AO2 T03660118
KPEQ 081855Z AUTO 10006KT 10SM CLR 36/12 A3003 RMK AO2 T03610124
KPEQ 081835Z AUTO 00000KT 10SM CLR 36/14 A3004 RMK AO2 T03630139
KPEQ 081815Z AUTO 10003KT 10SM CLR 35/14 A3005 RMK AO2 T03470138
KPEQ 081755Z AUTO 00000KT 10SM CLR 34/14 A3006 RMK AO2 T03420142 10342 20243
KPEQ 081735Z AUTO 00000KT 10SM CLR 33/14 A3006 RMK AO2 T03280142

METAR Board
Radar Display
Forecast Discussion
For situational awareness. Not to be used for flight planning purposes.